sensor_id;sensor_type;location;lat;lon;timestamp;P1;durP1;ratioP1;P2;durP2;ratioP2
38425;SDS011;24210;51.460;6.148;2023-04-25T00:00:13;10.10;;;3.67;;
38425;SDS011;24210;51.460;6.148;2023-04-25T00:02:38;10.57;;;3.90;;
38425;SDS011;24210;51.460;6.148;2023-04-25T00:05:03;11.40;;;4.47;;
38425;SDS011;24210;51.460;6.148;2023-04-25T00:07:29;9.13;;;3.67;;
38425;SDS011;24210;51.460;6.148;2023-04-25T00:09:56;7.00;;;3.42;;
38425;SDS011;24210;51.460;6.148;2023-04-25T00:12:21;8.90;;;4.37;;
38425;SDS011;24210;51.460;6.148;2023-04-25T00:14:47;14.23;;;4.60;;
38425;SDS011;24210;51.460;6.148;2023-04-25T00:17:14;8.85;;;4.15;;
38425;SDS011;24210;51.460;6.148;2023-04-25T00:19:39;13.67;;;5.00;;
38425;SDS011;24210;51.460;6.148;2023-04-25T00:22:05;9.47;;;3.43;;
38425;SDS011;24210;51.460;6.148;2023-04-25T00:24:30;9.33;;;4.03;;
38425;SDS011;24210;51.460;6.148;2023-04-25T00:26:55;9.63;;;4.23;;
38425;SDS011;24210;51.460;6.148;2023-04-25T00:29:21;7.40;;;3.50;;
38425;SDS011;24210;51.460;6.148;2023-04-25T00:31:46;10.77;;;4.03;;
38425;SDS011;24210;51.460;6.148;2023-04-25T00:34:11;10.47;;;3.37;;
38425;SDS011;24210;51.460;6.148;2023-04-25T00:36:36;8.07;;;3.10;;
38425;SDS011;24210;51.460;6.148;2023-04-25T00:39:01;10.17;;;3.27;;
38425;SDS011;24210;51.460;6.148;2023-04-25T00:41:27;9.53;;;3.13;;
38425;SDS011;24210;51.460;6.148;2023-04-25T00:43:53;7.43;;;3.77;;
38425;SDS011;24210;51.460;6.148;2023-04-25T00:46:19;8.13;;;3.10;;
38425;SDS011;24210;51.460;6.148;2023-04-25T00:48:44;5.53;;;2.80;;
38425;SDS011;24210;51.460;6.148;2023-04-25T00:51:10;6.33;;;2.93;;
38425;SDS011;24210;51.460;6.148;2023-04-25T00:53:38;9.40;;;2.90;;
38425;SDS011;24210;51.460;6.148;2023-04-25T00:56:04;7.20;;;3.30;;
38425;SDS011;24210;51.460;6.148;2023-04-25T00:58:30;8.20;;;3.10;;
38425;SDS011;24210;51.460;6.148;2023-04-25T01:00:56;9.30;;;2.80;;
38425;SDS011;24210;51.460;6.148;2023-04-25T01:03:22;7.22;;;3.17;;
38425;SDS011;24210;51.460;6.148;2023-04-25T01:05:47;6.07;;;2.27;;
38425;SDS011;24210;51.460;6.148;2023-04-25T01:08:13;6.57;;;3.50;;
38425;SDS011;24210;51.460;6.148;2023-04-25T01:10:38;9.50;;;2.83;;
38425;SDS011;24210;51.460;6.148;2023-04-25T01:13:04;6.17;;;2.63;;
38425;SDS011;24210;51.460;6.148;2023-04-25T01:15:29;9.87;;;3.00;;
38425;SDS011;24210;51.460;6.148;2023-04-25T01:17:54;13.07;;;3.20;;
38425;SDS011;24210;51.460;6.148;2023-04-25T01:20:23;6.90;;;3.03;;
38425;SDS011;24210;51.460;6.148;2023-04-25T01:22:50;10.73;;;3.15;;
38425;SDS011;24210;51.460;6.148;2023-04-25T01:25:15;9.87;;;3.37;;
38425;SDS011;24210;51.460;6.148;2023-04-25T01:27:41;8.85;;;3.08;;
38425;SDS011;24210;51.460;6.148;2023-04-25T01:30:07;7.60;;;3.00;;
38425;SDS011;24210;51.460;6.148;2023-04-25T01:32:33;12.37;;;3.40;;
38425;SDS011;24210;51.460;6.148;2023-04-25T01:35:03;5.22;;;2.75;;
38425;SDS011;24210;51.460;6.148;2023-04-25T01:37:29;5.38;;;2.67;;
38425;SDS011;24210;51.460;6.148;2023-04-25T01:39:54;10.57;;;3.63;;
38425;SDS011;24210;51.460;6.148;2023-04-25T01:42:19;8.43;;;2.63;;
38425;SDS011;24210;51.460;6.148;2023-04-25T01:44:45;6.83;;;3.00;;
38425;SDS011;24210;51.460;6.148;2023-04-25T01:47:10;7.27;;;3.30;;
38425;SDS011;24210;51.460;6.148;2023-04-25T01:49:35;7.30;;;3.07;;
38425;SDS011;24210;51.460;6.148;2023-04-25T01:52:00;8.37;;;3.33;;
38425;SDS011;24210;51.460;6.148;2023-04-25T01:54:25;11.50;;;3.23;;
38425;SDS011;24210;51.460;6.148;2023-04-25T01:56:51;9.87;;;3.13;;
38425;SDS011;24210;51.460;6.148;2023-04-25T01:59:16;10.23;;;3.57;;
38425;SDS011;24210;51.460;6.148;2023-04-25T02:04:08;9.38;;;2.88;;
38425;SDS011;24210;51.460;6.148;2023-04-25T02:06:33;7.37;;;2.90;;
38425;SDS011;24210;51.460;6.148;2023-04-25T02:08:58;7.57;;;3.00;;
38425;SDS011;24210;51.460;6.148;2023-04-25T02:11:23;12.47;;;3.37;;
38425;SDS011;24210;51.460;6.148;2023-04-25T02:13:49;11.80;;;3.20;;
38425;SDS011;24210;51.460;6.148;2023-04-25T02:16:14;14.33;;;3.47;;
38425;SDS011;24210;51.460;6.148;2023-04-25T02:18:39;11.43;;;3.50;;
38425;SDS011;24210;51.460;6.148;2023-04-25T02:21:04;7.97;;;3.07;;
38425;SDS011;24210;51.460;6.148;2023-04-25T02:23:30;13.13;;;4.20;;
38425;SDS011;24210;51.460;6.148;2023-04-25T02:25:56;9.43;;;2.50;;
38425;SDS011;24210;51.460;6.148;2023-04-25T02:28:23;11.80;;;2.67;;
38425;SDS011;24210;51.460;6.148;2023-04-25T02:30:48;15.52;;;3.03;;
38425;SDS011;24210;51.460;6.148;2023-04-25T02:33:13;9.67;;;2.57;;
38425;SDS011;24210;51.460;6.148;2023-04-25T02:35:38;10.77;;;3.47;;
38425;SDS011;24210;51.460;6.148;2023-04-25T02:38:04;8.73;;;2.50;;
38425;SDS011;24210;51.460;6.148;2023-04-25T02:40:29;13.73;;;4.03;;
38425;SDS011;24210;51.460;6.148;2023-04-25T02:42:54;10.87;;;3.90;;
38425;SDS011;24210;51.460;6.148;2023-04-25T02:45:19;14.40;;;2.97;;
38425;SDS011;24210;51.460;6.148;2023-04-25T02:47:45;7.13;;;2.77;;
38425;SDS011;24210;51.460;6.148;2023-04-25T02:50:10;10.00;;;3.53;;
38425;SDS011;24210;51.460;6.148;2023-04-25T02:52:36;11.07;;;3.07;;
38425;SDS011;24210;51.460;6.148;2023-04-25T02:55:01;15.63;;;3.87;;
38425;SDS011;24210;51.460;6.148;2023-04-25T02:57:26;11.37;;;3.10;;
38425;SDS011;24210;51.460;6.148;2023-04-25T02:59:52;10.43;;;3.23;;
38425;SDS011;24210;51.460;6.148;2023-04-25T03:02:17;10.53;;;2.70;;
38425;SDS011;24210;51.460;6.148;2023-04-25T03:04:42;11.93;;;2.93;;
38425;SDS011;24210;51.460;6.148;2023-04-25T03:07:07;9.40;;;3.40;;
38425;SDS011;24210;51.460;6.148;2023-04-25T03:09:33;11.83;;;3.30;;
38425;SDS011;24210;51.460;6.148;2023-04-25T03:11:58;8.93;;;2.80;;
38425;SDS011;24210;51.460;6.148;2023-04-25T03:14:23;10.47;;;4.07;;
38425;SDS011;24210;51.460;6.148;2023-04-25T03:16:48;9.67;;;3.47;;
38425;SDS011;24210;51.460;6.148;2023-04-25T03:19:14;10.10;;;3.40;;
38425;SDS011;24210;51.460;6.148;2023-04-25T03:21:41;20.40;;;3.00;;
38425;SDS011;24210;51.460;6.148;2023-04-25T03:24:06;10.17;;;3.10;;
38425;SDS011;24210;51.460;6.148;2023-04-25T03:26:31;13.70;;;3.77;;
38425;SDS011;24210;51.460;6.148;2023-04-25T03:28:56;13.80;;;5.00;;
38425;SDS011;24210;51.460;6.148;2023-04-25T03:31:22;11.00;;;3.50;;
38425;SDS011;24210;51.460;6.148;2023-04-25T03:33:47;11.47;;;3.27;;
38425;SDS011;24210;51.460;6.148;2023-04-25T03:36:12;12.07;;;3.40;;
38425;SDS011;24210;51.460;6.148;2023-04-25T03:38:37;12.00;;;3.67;;
38425;SDS011;24210;51.460;6.148;2023-04-25T03:41:03;17.93;;;3.50;;
38425;SDS011;24210;51.460;6.148;2023-04-25T03:43:28;10.80;;;3.47;;
38425;SDS011;24210;51.460;6.148;2023-04-25T03:45:53;17.10;;;4.43;;
38425;SDS011;24210;51.460;6.148;2023-04-25T03:48:18;16.33;;;3.90;;
38425;SDS011;24210;51.460;6.148;2023-04-25T03:50:46;11.73;;;3.85;;
38425;SDS011;24210;51.460;6.148;2023-04-25T03:53:11;10.20;;;3.57;;
38425;SDS011;24210;51.460;6.148;2023-04-25T03:55:37;10.53;;;3.90;;
38425;SDS011;24210;51.460;6.148;2023-04-25T03:58:02;8.80;;;3.53;;
38425;SDS011;24210;51.460;6.148;2023-04-25T04:00:27;10.77;;;3.50;;
38425;SDS011;24210;51.460;6.148;2023-04-25T04:02:52;17.30;;;3.47;;
38425;SDS011;24210;51.460;6.148;2023-04-25T04:05:18;11.90;;;4.17;;
38425;SDS011;24210;51.460;6.148;2023-04-25T04:07:43;15.63;;;3.67;;
38425;SDS011;24210;51.460;6.148;2023-04-25T04:10:09;11.93;;;4.67;;
38425;SDS011;24210;51.460;6.148;2023-04-25T04:12:34;11.60;;;3.65;;
38425;SDS011;24210;51.460;6.148;2023-04-25T04:14:59;10.47;;;4.20;;
38425;SDS011;24210;51.460;6.148;2023-04-25T04:17:24;9.33;;;3.97;;
38425;SDS011;24210;51.460;6.148;2023-04-25T04:19:50;12.20;;;5.00;;
38425;SDS011;24210;51.460;6.148;2023-04-25T04:22:15;8.17;;;4.23;;
38425;SDS011;24210;51.460;6.148;2023-04-25T04:24:40;13.30;;;3.80;;
38425;SDS011;24210;51.460;6.148;2023-04-25T04:27:08;14.90;;;4.50;;
38425;SDS011;24210;51.460;6.148;2023-04-25T04:29:34;11.47;;;3.80;;
38425;SDS011;24210;51.460;6.148;2023-04-25T04:31:59;10.93;;;3.93;;
38425;SDS011;24210;51.460;6.148;2023-04-25T04:34:26;12.05;;;4.53;;
38425;SDS011;24210;51.460;6.148;2023-04-25T04:36:52;13.27;;;4.30;;
38425;SDS011;24210;51.460;6.148;2023-04-25T04:39:17;10.77;;;4.07;;
38425;SDS011;24210;51.460;6.148;2023-04-25T04:41:42;15.67;;;4.97;;
38425;SDS011;24210;51.460;6.148;2023-04-25T04:44:07;11.37;;;4.40;;
38425;SDS011;24210;51.460;6.148;2023-04-25T04:46:33;11.05;;;4.07;;
38425;SDS011;24210;51.460;6.148;2023-04-25T04:49:06;11.40;;;3.78;;
38425;SDS011;24210;51.460;6.148;2023-04-25T04:51:32;11.90;;;3.70;;
38425;SDS011;24210;51.460;6.148;2023-04-25T04:53:58;18.23;;;5.07;;
38425;SDS011;24210;51.460;6.148;2023-04-25T04:56:26;12.32;;;4.35;;
38425;SDS011;24210;51.460;6.148;2023-04-25T04:58:51;11.90;;;4.50;;
38425;SDS011;24210;51.460;6.148;2023-04-25T05:01:17;8.23;;;4.10;;
38425;SDS011;24210;51.460;6.148;2023-04-25T05:03:42;18.87;;;4.57;;
38425;SDS011;24210;51.460;6.148;2023-04-25T05:06:08;11.33;;;3.90;;
38425;SDS011;24210;51.460;6.148;2023-04-25T05:08:33;13.70;;;5.07;;
38425;SDS011;24210;51.460;6.148;2023-04-25T05:10:59;9.73;;;4.40;;
38425;SDS011;24210;51.460;6.148;2023-04-25T05:13:24;11.70;;;4.47;;
38425;SDS011;24210;51.460;6.148;2023-04-25T05:15:49;11.23;;;4.23;;
38425;SDS011;24210;51.460;6.148;2023-04-25T05:18:14;12.53;;;4.20;;
38425;SDS011;24210;51.460;6.148;2023-04-25T05:20:40;14.53;;;5.30;;
38425;SDS011;24210;51.460;6.148;2023-04-25T05:23:05;13.87;;;6.40;;
38425;SDS011;24210;51.460;6.148;2023-04-25T05:25:30;11.33;;;5.27;;
38425;SDS011;24210;51.460;6.148;2023-04-25T05:27:55;18.73;;;5.03;;
38425;SDS011;24210;51.460;6.148;2023-04-25T05:30:21;9.27;;;4.38;;
38425;SDS011;24210;51.460;6.148;2023-04-25T05:32:46;12.83;;;5.00;;
38425;SDS011;24210;51.460;6.148;2023-04-25T05:35:12;13.87;;;6.00;;
38425;SDS011;24210;51.460;6.148;2023-04-25T05:37:37;17.10;;;5.07;;
38425;SDS011;24210;51.460;6.148;2023-04-25T05:40:03;13.00;;;3.87;;
38425;SDS011;24210;51.460;6.148;2023-04-25T05:42:31;13.73;;;5.13;;
38425;SDS011;24210;51.460;6.148;2023-04-25T05:44:57;11.33;;;4.40;;
38425;SDS011;24210;51.460;6.148;2023-04-25T05:47:22;10.63;;;5.30;;
38425;SDS011;24210;51.460;6.148;2023-04-25T05:49:47;9.70;;;3.80;;
38425;SDS011;24210;51.460;6.148;2023-04-25T05:52:12;13.87;;;5.33;;
38425;SDS011;24210;51.460;6.148;2023-04-25T05:54:38;18.07;;;5.70;;
38425;SDS011;24210;51.460;6.148;2023-04-25T05:57:03;12.20;;;4.13;;
38425;SDS011;24210;51.460;6.148;2023-04-25T05:59:28;15.03;;;4.03;;
38425;SDS011;24210;51.460;6.148;2023-04-25T06:01:53;11.70;;;4.40;;
38425;SDS011;24210;51.460;6.148;2023-04-25T06:04:19;9.93;;;4.82;;
38425;SDS011;24210;51.460;6.148;2023-04-25T06:06:45;15.20;;;3.17;;
38425;SDS011;24210;51.460;6.148;2023-04-25T06:09:10;14.33;;;4.27;;
38425;SDS011;24210;51.460;6.148;2023-04-25T06:11:35;10.37;;;4.17;;
38425;SDS011;24210;51.460;6.148;2023-04-25T06:14:00;12.30;;;4.03;;
38425;SDS011;24210;51.460;6.148;2023-04-25T06:16:26;13.03;;;5.63;;
38425;SDS011;24210;51.460;6.148;2023-04-25T06:18:51;10.97;;;4.10;;
38425;SDS011;24210;51.460;6.148;2023-04-25T06:21:16;13.67;;;4.37;;
38425;SDS011;24210;51.460;6.148;2023-04-25T06:23:41;15.13;;;5.53;;
38425;SDS011;24210;51.460;6.148;2023-04-25T06:26:07;13.57;;;4.27;;
38425;SDS011;24210;51.460;6.148;2023-04-25T06:28:32;12.70;;;3.77;;
38425;SDS011;24210;51.460;6.148;2023-04-25T06:30:57;11.43;;;3.03;;
38425;SDS011;24210;51.460;6.148;2023-04-25T06:33:22;12.67;;;2.97;;
38425;SDS011;24210;51.460;6.148;2023-04-25T06:35:49;18.50;;;3.55;;
38425;SDS011;24210;51.460;6.148;2023-04-25T06:38:15;11.70;;;3.30;;
38425;SDS011;24210;51.460;6.148;2023-04-25T06:40:40;7.90;;;4.20;;
38425;SDS011;24210;51.460;6.148;2023-04-25T06:43:05;14.40;;;3.83;;
38425;SDS011;24210;51.460;6.148;2023-04-25T06:45:30;12.57;;;4.63;;
38425;SDS011;24210;51.460;6.148;2023-04-25T06:47:56;13.40;;;3.07;;
38425;SDS011;24210;51.460;6.148;2023-04-25T06:50:21;11.27;;;3.13;;
38425;SDS011;24210;51.460;6.148;2023-04-25T06:52:46;15.07;;;3.03;;
38425;SDS011;24210;51.460;6.148;2023-04-25T06:55:11;12.03;;;2.57;;
38425;SDS011;24210;51.460;6.148;2023-04-25T06:57:37;6.27;;;1.97;;
38425;SDS011;24210;51.460;6.148;2023-04-25T07:00:02;5.17;;;2.17;;
38425;SDS011;24210;51.460;6.148;2023-04-25T07:02:30;13.70;;;3.75;;
38425;SDS011;24210;51.460;6.148;2023-04-25T07:04:55;16.37;;;3.97;;
38425;SDS011;24210;51.460;6.148;2023-04-25T07:07:24;18.42;;;4.40;;
38425;SDS011;24210;51.460;6.148;2023-04-25T07:09:49;12.67;;;3.63;;
38425;SDS011;24210;51.460;6.148;2023-04-25T07:12:15;12.27;;;3.87;;
38425;SDS011;24210;51.460;6.148;2023-04-25T07:14:40;11.93;;;3.20;;
38425;SDS011;24210;51.460;6.148;2023-04-25T07:17:05;11.67;;;3.13;;
38425;SDS011;24210;51.460;6.148;2023-04-25T07:19:31;12.95;;;4.70;;
38425;SDS011;24210;51.460;6.148;2023-04-25T07:21:57;16.17;;;4.07;;
38425;SDS011;24210;51.460;6.148;2023-04-25T07:24:22;10.83;;;3.43;;
38425;SDS011;24210;51.460;6.148;2023-04-25T07:26:47;17.00;;;3.80;;
38425;SDS011;24210;51.460;6.148;2023-04-25T07:29:12;15.03;;;4.63;;
38425;SDS011;24210;51.460;6.148;2023-04-25T07:31:38;14.10;;;3.63;;
38425;SDS011;24210;51.460;6.148;2023-04-25T07:34:03;11.80;;;3.27;;
38425;SDS011;24210;51.460;6.148;2023-04-25T07:36:28;10.47;;;2.87;;
38425;SDS011;24210;51.460;6.148;2023-04-25T07:38:53;9.00;;;3.43;;
38425;SDS011;24210;51.460;6.148;2023-04-25T07:41:19;10.80;;;3.03;;
38425;SDS011;24210;51.460;6.148;2023-04-25T07:43:44;15.83;;;3.93;;
38425;SDS011;24210;51.460;6.148;2023-04-25T07:46:10;12.43;;;3.40;;
38425;SDS011;24210;51.460;6.148;2023-04-25T07:48:35;11.07;;;3.07;;
38425;SDS011;24210;51.460;6.148;2023-04-25T07:51:00;13.67;;;3.30;;
38425;SDS011;24210;51.460;6.148;2023-04-25T07:53:25;11.47;;;2.30;;
38425;SDS011;24210;51.460;6.148;2023-04-25T07:55:51;11.40;;;2.27;;
38425;SDS011;24210;51.460;6.148;2023-04-25T07:58:16;10.73;;;2.37;;
38425;SDS011;24210;51.460;6.148;2023-04-25T08:00:46;9.77;;;2.80;;
38425;SDS011;24210;51.460;6.148;2023-04-25T08:03:11;9.33;;;2.53;;
38425;SDS011;24210;51.460;6.148;2023-04-25T08:05:37;9.23;;;2.47;;
38425;SDS011;24210;51.460;6.148;2023-04-25T08:08:02;12.67;;;2.40;;
38425;SDS011;24210;51.460;6.148;2023-04-25T08:10:27;12.03;;;2.23;;
38425;SDS011;24210;51.460;6.148;2023-04-25T08:12:53;6.97;;;2.03;;
38425;SDS011;24210;51.460;6.148;2023-04-25T08:15:18;7.77;;;2.67;;
38425;SDS011;24210;51.460;6.148;2023-04-25T08:17:43;10.33;;;2.47;;
38425;SDS011;24210;51.460;6.148;2023-04-25T08:20:09;12.30;;;2.87;;
38425;SDS011;24210;51.460;6.148;2023-04-25T08:22:35;8.05;;;2.88;;
38425;SDS011;24210;51.460;6.148;2023-04-25T08:25:00;7.97;;;1.87;;
38425;SDS011;24210;51.460;6.148;2023-04-25T08:27:25;9.67;;;1.93;;
38425;SDS011;24210;51.460;6.148;2023-04-25T08:29:51;10.17;;;2.07;;
38425;SDS011;24210;51.460;6.148;2023-04-25T08:32:16;8.93;;;2.23;;
38425;SDS011;24210;51.460;6.148;2023-04-25T08:34:41;9.40;;;2.70;;
38425;SDS011;24210;51.460;6.148;2023-04-25T08:37:08;9.32;;;1.40;;
38425;SDS011;24210;51.460;6.148;2023-04-25T08:39:34;8.30;;;3.25;;
38425;SDS011;24210;51.460;6.148;2023-04-25T08:42:00;6.30;;;2.80;;
38425;SDS011;24210;51.460;6.148;2023-04-25T08:44:25;7.13;;;1.60;;
38425;SDS011;24210;51.460;6.148;2023-04-25T08:46:51;12.87;;;2.33;;
38425;SDS011;24210;51.460;6.148;2023-04-25T08:49:17;6.23;;;1.70;;
38425;SDS011;24210;51.460;6.148;2023-04-25T08:54:09;8.43;;;1.73;;
38425;SDS011;24210;51.460;6.148;2023-04-25T08:59:01;7.97;;;1.00;;
38425;SDS011;24210;51.460;6.148;2023-04-25T09:01:27;7.75;;;1.40;;
38425;SDS011;24210;51.460;6.148;2023-04-25T09:03:52;3.00;;;1.37;;
38425;SDS011;24210;51.460;6.148;2023-04-25T09:06:18;5.03;;;1.60;;
38425;SDS011;24210;51.460;6.148;2023-04-25T09:08:44;6.18;;;1.40;;
38425;SDS011;24210;51.460;6.148;2023-04-25T09:11:09;6.93;;;2.10;;
38425;SDS011;24210;51.460;6.148;2023-04-25T09:13:34;4.57;;;1.30;;
38425;SDS011;24210;51.460;6.148;2023-04-25T09:16:00;7.77;;;1.67;;
38425;SDS011;24210;51.460;6.148;2023-04-25T09:18:26;7.27;;;2.00;;
38425;SDS011;24210;51.460;6.148;2023-04-25T09:20:55;6.95;;;2.25;;
38425;SDS011;24210;51.460;6.148;2023-04-25T09:23:21;12.50;;;2.30;;
38425;SDS011;24210;51.460;6.148;2023-04-25T09:25:50;3.70;;;1.57;;
38425;SDS011;24210;51.460;6.148;2023-04-25T09:28:16;11.38;;;1.70;;
38425;SDS011;24210;51.460;6.148;2023-04-25T09:30:41;18.37;;;2.63;;
38425;SDS011;24210;51.460;6.148;2023-04-25T09:33:07;8.77;;;2.30;;
38425;SDS011;24210;51.460;6.148;2023-04-25T09:35:42;11.60;;;2.63;;
38425;SDS011;24210;51.460;6.148;2023-04-25T09:38:09;11.30;;;2.50;;
38425;SDS011;24210;51.460;6.148;2023-04-25T09:40:38;4.45;;;0.98;;
38425;SDS011;24210;51.460;6.148;2023-04-25T09:43:08;9.13;;;2.15;;
38425;SDS011;24210;51.460;6.148;2023-04-25T09:45:33;6.68;;;1.25;;
38425;SDS011;24210;51.460;6.148;2023-04-25T09:48:06;1.55;;;0.70;;
38425;SDS011;24210;51.460;6.148;2023-04-25T09:50:31;9.60;;;1.37;;
38425;SDS011;24210;51.460;6.148;2023-04-25T09:53:03;11.20;;;1.83;;
38425;SDS011;24210;51.460;6.148;2023-04-25T09:55:29;7.78;;;1.45;;
38425;SDS011;24210;51.460;6.148;2023-04-25T09:57:55;11.13;;;1.75;;
38425;SDS011;24210;51.460;6.148;2023-04-25T10:00:22;4.13;;;1.52;;
38425;SDS011;24210;51.460;6.148;2023-04-25T10:02:47;6.63;;;1.53;;
38425;SDS011;24210;51.460;6.148;2023-04-25T10:05:13;7.65;;;1.85;;
38425;SDS011;24210;51.460;6.148;2023-04-25T10:07:39;4.53;;;1.17;;
38425;SDS011;24210;51.460;6.148;2023-04-25T10:10:05;5.00;;;1.63;;
38425;SDS011;24210;51.460;6.148;2023-04-25T10:12:31;8.40;;;1.27;;
38425;SDS011;24210;51.460;6.148;2023-04-25T10:17:22;0.32;;;0.25;;
38425;SDS011;24210;51.460;6.148;2023-04-25T10:19:48;4.30;;;1.10;;
38425;SDS011;24210;51.460;6.148;2023-04-25T10:22:22;5.67;;;0.90;;
38425;SDS011;24210;51.460;6.148;2023-04-25T10:24:48;4.72;;;1.30;;
38425;SDS011;24210;51.460;6.148;2023-04-25T10:27:14;6.47;;;1.17;;
38425;SDS011;24210;51.460;6.148;2023-04-25T10:29:40;6.03;;;1.20;;
38425;SDS011;24210;51.460;6.148;2023-04-25T10:32:07;5.05;;;1.20;;
38425;SDS011;24210;51.460;6.148;2023-04-25T10:34:39;5.27;;;1.53;;
38425;SDS011;24210;51.460;6.148;2023-04-25T10:37:05;7.38;;;1.20;;
38425;SDS011;24210;51.460;6.148;2023-04-25T10:39:33;3.97;;;1.38;;
38425;SDS011;24210;51.460;6.148;2023-04-25T10:41:58;15.60;;;1.37;;
38425;SDS011;24210;51.460;6.148;2023-04-25T10:44:27;1.90;;;0.87;;
38425;SDS011;24210;51.460;6.148;2023-04-25T10:46:54;6.88;;;1.58;;
38425;SDS011;24210;51.460;6.148;2023-04-25T10:49:36;0.82;;;0.43;;
38425;SDS011;24210;51.460;6.148;2023-04-25T10:52:11;2.20;;;0.30;;
38425;SDS011;24210;51.460;6.148;2023-04-25T10:54:55;3.25;;;1.48;;
38425;SDS011;24210;51.460;6.148;2023-04-25T11:00:09;2.47;;;0.95;;
38425;SDS011;24210;51.460;6.148;2023-04-25T11:02:51;4.07;;;0.77;;
38425;SDS011;24210;51.460;6.148;2023-04-25T11:05:22;1.48;;;0.10;;
38425;SDS011;24210;51.460;6.148;2023-04-25T11:10:12;2.83;;;0.80;;
38425;SDS011;24210;51.460;6.148;2023-04-25T11:12:38;0.30;;;0.13;;
38425;SDS011;24210;51.460;6.148;2023-04-25T11:15:04;1.53;;;0.60;;
38425;SDS011;24210;51.460;6.148;2023-04-25T11:17:30;2.10;;;0.47;;
38425;SDS011;24210;51.460;6.148;2023-04-25T11:19:56;3.43;;;0.40;;
38425;SDS011;24210;51.460;6.148;2023-04-25T11:22:21;1.27;;;0.40;;
38425;SDS011;24210;51.460;6.148;2023-04-25T11:24:47;2.40;;;0.47;;
38425;SDS011;24210;51.460;6.148;2023-04-25T11:27:12;2.33;;;0.70;;
38425;SDS011;24210;51.460;6.148;2023-04-25T11:29:37;2.20;;;0.50;;
38425;SDS011;24210;51.460;6.148;2023-04-25T11:32:03;3.00;;;0.67;;
38425;SDS011;24210;51.460;6.148;2023-04-25T11:34:28;4.13;;;0.70;;
38425;SDS011;24210;51.460;6.148;2023-04-25T11:36:57;2.95;;;0.60;;
38425;SDS011;24210;51.460;6.148;2023-04-25T11:39:26;5.60;;;0.97;;
38425;SDS011;24210;51.460;6.148;2023-04-25T11:41:51;4.30;;;1.08;;
38425;SDS011;24210;51.460;6.148;2023-04-25T11:44:17;6.07;;;1.07;;
38425;SDS011;24210;51.460;6.148;2023-04-25T11:46:43;3.00;;;1.10;;
38425;SDS011;24210;51.460;6.148;2023-04-25T11:49:08;6.13;;;1.63;;
38425;SDS011;24210;51.460;6.148;2023-04-25T11:51:40;4.73;;;0.97;;
38425;SDS011;24210;51.460;6.148;2023-04-25T11:54:06;5.35;;;1.00;;
38425;SDS011;24210;51.460;6.148;2023-04-25T11:56:31;3.80;;;1.10;;
38425;SDS011;24210;51.460;6.148;2023-04-25T11:59:04;3.95;;;1.00;;
38425;SDS011;24210;51.460;6.148;2023-04-25T12:01:30;4.18;;;0.88;;
38425;SDS011;24210;51.460;6.148;2023-04-25T12:03:55;5.25;;;0.75;;
38425;SDS011;24210;51.460;6.148;2023-04-25T12:06:20;7.30;;;2.17;;
38425;SDS011;24210;51.460;6.148;2023-04-25T12:08:58;3.90;;;0.73;;
38425;SDS011;24210;51.460;6.148;2023-04-25T12:11:24;0.95;;;0.45;;
38425;SDS011;24210;51.460;6.148;2023-04-25T12:13:51;5.90;;;0.90;;
38425;SDS011;24210;51.460;6.148;2023-04-25T12:16:17;2.95;;;1.20;;
38425;SDS011;24210;51.460;6.148;2023-04-25T12:18:42;8.53;;;0.90;;
38425;SDS011;24210;51.460;6.148;2023-04-25T12:21:07;2.97;;;0.53;;
38425;SDS011;24210;51.460;6.148;2023-04-25T12:23:34;4.85;;;0.77;;
38425;SDS011;24210;51.460;6.148;2023-04-25T12:26:03;5.95;;;0.68;;
38425;SDS011;24210;51.460;6.148;2023-04-25T12:28:28;3.37;;;0.90;;
38425;SDS011;24210;51.460;6.148;2023-04-25T12:31:04;3.15;;;0.95;;
38425;SDS011;24210;51.460;6.148;2023-04-25T12:33:31;2.25;;;0.70;;
38425;SDS011;24210;51.460;6.148;2023-04-25T12:35:57;4.82;;;0.90;;
38425;SDS011;24210;51.460;6.148;2023-04-25T12:38:23;5.13;;;0.63;;
38425;SDS011;24210;51.460;6.148;2023-04-25T12:40:48;2.55;;;1.05;;
38425;SDS011;24210;51.460;6.148;2023-04-25T12:43:14;6.63;;;0.90;;
38425;SDS011;24210;51.460;6.148;2023-04-25T12:45:39;6.17;;;1.27;;
38425;SDS011;24210;51.460;6.148;2023-04-25T12:48:05;8.80;;;1.00;;
38425;SDS011;24210;51.460;6.148;2023-04-25T12:50:30;19.10;;;1.40;;
38425;SDS011;24210;51.460;6.148;2023-04-25T12:52:56;3.93;;;1.10;;
38425;SDS011;24210;51.460;6.148;2023-04-25T12:55:21;4.57;;;0.93;;
38425;SDS011;24210;51.460;6.148;2023-04-25T12:57:46;4.20;;;0.60;;
38425;SDS011;24210;51.460;6.148;2023-04-25T13:00:12;3.37;;;0.90;;
38425;SDS011;24210;51.460;6.148;2023-04-25T13:02:39;2.35;;;0.70;;
38425;SDS011;24210;51.460;6.148;2023-04-25T13:05:05;3.47;;;1.60;;
38425;SDS011;24210;51.460;6.148;2023-04-25T13:07:30;6.73;;;1.13;;
38425;SDS011;24210;51.460;6.148;2023-04-25T13:09:55;3.27;;;1.37;;
38425;SDS011;24210;51.460;6.148;2023-04-25T13:12:21;1.57;;;0.80;;
38425;SDS011;24210;51.460;6.148;2023-04-25T13:14:46;5.47;;;0.97;;
38425;SDS011;24210;51.460;6.148;2023-04-25T13:17:11;4.03;;;0.90;;
38425;SDS011;24210;51.460;6.148;2023-04-25T13:19:36;1.90;;;0.73;;
38425;SDS011;24210;51.460;6.148;2023-04-25T13:22:03;2.95;;;0.68;;
38425;SDS011;24210;51.460;6.148;2023-04-25T13:24:29;4.43;;;0.53;;
38425;SDS011;24210;51.460;6.148;2023-04-25T13:26:54;1.50;;;0.67;;
38425;SDS011;24210;51.460;6.148;2023-04-25T13:29:20;3.07;;;0.90;;
38425;SDS011;24210;51.460;6.148;2023-04-25T13:31:45;2.60;;;0.50;;
38425;SDS011;24210;51.460;6.148;2023-04-25T13:34:10;6.17;;;0.87;;
38425;SDS011;24210;51.460;6.148;2023-04-25T13:39:02;2.45;;;0.80;;
38425;SDS011;24210;51.460;6.148;2023-04-25T13:41:29;2.20;;;0.60;;
38425;SDS011;24210;51.460;6.148;2023-04-25T13:43:54;11.60;;;0.63;;
38425;SDS011;24210;51.460;6.148;2023-04-25T13:46:19;3.10;;;0.73;;
38425;SDS011;24210;51.460;6.148;2023-04-25T13:48:45;2.27;;;0.53;;
38425;SDS011;24210;51.460;6.148;2023-04-25T13:51:13;5.30;;;0.55;;
38425;SDS011;24210;51.460;6.148;2023-04-25T13:53:38;2.17;;;0.57;;
38425;SDS011;24210;51.460;6.148;2023-04-25T13:56:04;2.17;;;0.43;;
38425;SDS011;24210;51.460;6.148;2023-04-25T13:58:29;2.27;;;0.53;;
38425;SDS011;24210;51.460;6.148;2023-04-25T14:00:54;2.10;;;0.80;;
38425;SDS011;24210;51.460;6.148;2023-04-25T14:03:20;4.90;;;0.90;;
38425;SDS011;24210;51.460;6.148;2023-04-25T14:05:45;9.03;;;1.50;;
38425;SDS011;24210;51.460;6.148;2023-04-25T14:08:10;3.57;;;0.90;;
38425;SDS011;24210;51.460;6.148;2023-04-25T14:10:36;4.10;;;0.77;;
38425;SDS011;24210;51.460;6.148;2023-04-25T14:13:01;4.53;;;1.10;;
38425;SDS011;24210;51.460;6.148;2023-04-25T14:15:28;7.28;;;1.55;;
38425;SDS011;24210;51.460;6.148;2023-04-25T14:17:53;5.90;;;0.90;;
38425;SDS011;24210;51.460;6.148;2023-04-25T14:20:18;3.37;;;0.60;;
38425;SDS011;24210;51.460;6.148;2023-04-25T14:22:46;5.88;;;0.85;;
38425;SDS011;24210;51.460;6.148;2023-04-25T14:25:11;3.07;;;1.03;;
38425;SDS011;24210;51.460;6.148;2023-04-25T14:27:36;2.17;;;0.57;;
38425;SDS011;24210;51.460;6.148;2023-04-25T14:30:02;7.33;;;2.30;;
38425;SDS011;24210;51.460;6.148;2023-04-25T14:32:27;3.83;;;0.90;;
38425;SDS011;24210;51.460;6.148;2023-04-25T14:34:52;8.07;;;2.13;;
38425;SDS011;24210;51.460;6.148;2023-04-25T14:37:17;7.10;;;1.17;;
38425;SDS011;24210;51.460;6.148;2023-04-25T14:39:43;2.10;;;0.80;;
38425;SDS011;24210;51.460;6.148;2023-04-25T14:42:08;3.10;;;0.20;;
38425;SDS011;24210;51.460;6.148;2023-04-25T14:44:33;3.40;;;0.93;;
38425;SDS011;24210;51.460;6.148;2023-04-25T14:46:58;2.73;;;0.93;;
38425;SDS011;24210;51.460;6.148;2023-04-25T14:49:24;7.17;;;1.03;;
38425;SDS011;24210;51.460;6.148;2023-04-25T14:51:49;3.90;;;0.70;;